Time;durP1;ratioP1;P1;durP2;ratioP2;P2;SDS_P1;SDS_P2;PMS_P1;PMS_P2;Temp;Humidity;BMP_temperature;BMP_pressure;BME280_temperature;BME280_humidity;BME280_pressure;Samples;Min_cycle;Max_cycle;Signal;HPM_P1;HPM_P2
2023/06/06 05:01:20;;;;;;;;;2.00;2.00;;;;;19.56;48.48;67830.03;6278100;22;45433;-91
2023/06/06 05:03:46;;;;;;;;;7.33;7.00;;;;;19.93;48.71;67801.84;6319327;22;45034;-90
2023/06/06 05:06:11;;;;;;;;;10.00;7.00;;;;;19.88;48.71;67812.69;6319468;22;45054;-92
2023/06/06 05:08:41;;;;;;;;;6.00;5.33;;;;;19.41;48.66;67740.09;6292528;22;47300;-91
2023/06/06 05:11:07;;;;;;;;;5.00;5.00;;;;;19.14;48.83;67752.56;6319199;22;45057;-90
2023/06/06 05:13:33;;;;;;;;;7.00;7.00;;;;;19.86;49.06;67727.19;6303043;22;45375;-85
2023/06/06 05:15:59;;;;;;;;;5.33;5.33;;;;;19.53;49.10;67724.03;6304878;22;45481;-85
2023/06/06 05:18:24;;;;;;;;;11.67;8.67;;;;;19.55;49.36;67705.50;6275401;22;47420;-86
2023/06/06 05:20:50;;;;;;;;;8.67;8.67;;;;;19.66;49.09;67717.19;6275748;22;45461;-85
2023/06/06 05:23:16;;;;;;;;;7.33;5.67;;;;;19.86;49.20;67697.09;6302989;22;45725;-85
2023/06/06 05:25:41;;;;;;;;;9.00;7.67;;;;;19.98;48.97;67644.00;6303098;22;45406;-86
2023/06/06 05:28:07;;;;;;;;;9.67;7.67;;;;;19.67;49.12;67727.00;6303145;22;47247;-91
2023/06/06 05:30:32;;;;;;;;;8.67;8.67;;;;;19.79;49.50;67604.22;6273876;22;45343;-86
2023/06/06 05:32:58;;;;;;;;;4.00;4.00;;;;;19.79;49.51;67604.22;6276407;22;45527;-85
2023/06/06 05:35:23;;;;;;;;;7.33;7.33;;;;;19.76;49.25;67551.84;6276817;22;45290;-84
2023/06/06 05:37:56;;;;;;;;;15.33;10.00;;;;;19.65;49.31;67563.75;6304644;22;45349;-92
2023/06/06 05:40:21;;;;;;;;;5.00;5.00;;;;;19.53;49.25;67536.91;6301232;22;45727;-86
2023/06/06 05:42:47;;;;;;;;;7.00;7.00;;;;;19.64;49.38;67567.91;6274638;22;45836;-86
2023/06/06 05:45:12;;;;;;;;;8.00;6.33;;;;;20.06;49.35;67615.19;6303581;22;45482;-85
2023/06/06 05:47:38;;;;;;;;;10.00;7.33;;;;;19.86;49.44;67621.97;6303322;22;46389;-86
2023/06/06 05:50:03;;;;;;;;;7.00;7.00;;;;;19.57;49.58;67436.41;6302305;22;45376;-86
2023/06/06 05:52:29;;;;;;;;;7.00;7.00;;;;;19.62;49.02;67458.34;6301745;22;45319;-86
2023/06/06 05:55:04;;;;;;;;;6.67;5.67;;;;;19.76;49.25;67474.66;6301957;22;45353;-86
2023/06/06 05:57:30;;;;;;;;;6.00;6.00;;;;;19.78;49.01;67377.75;6302067;22;45428;-86
2023/06/06 06:00:00;;;;;;;;;8.00;8.00;;;;;19.91;49.11;67410.47;6275201;22;45441;-86
2023/06/06 06:02:26;;;;;;;;;11.33;8.00;;;;;19.26;49.13;67428.28;6301621;22;45364;-86
2023/06/06 06:04:52;;;;;;;;;11.00;8.33;;;;;19.99;49.19;67337.19;6276227;22;45480;-86
2023/06/06 06:07:18;;;;;;;;;9.00;7.33;;;;;20.00;49.70;67335.66;6269833;22;48331;-85
2023/06/06 06:09:43;;;;;;;;;5.33;4.00;;;;;20.00;49.93;67308.25;6298400;22;45363;-86
2023/06/06 06:12:09;;;;;;;;;11.33;9.33;;;;;20.20;49.36;67331.47;6269543;22;45500;-86
2023/06/06 06:14:34;;;;;;;;;7.00;7.00;;;;;19.84;49.36;67311.72;6273283;22;45457;-86
2023/06/06 06:17:00;;;;;;;;;9.33;8.00;;;;;20.00;49.68;67316.31;6272306;22;45341;-86
2023/06/06 06:19:25;;;;;;;;;7.00;7.00;;;;;19.97;49.69;67173.28;6272939;22;45319;-86
2023/06/06 06:21:50;;;;;;;;;5.67;5.00;;;;;20.38;49.71;67289.50;6271110;22;45419;-86
2023/06/06 06:24:16;;;;;;;;;11.00;7.00;;;;;20.42;49.79;67243.13;6273212;22;45366;-85
2023/06/06 06:26:41;;;;;;;;;7.00;7.00;;;;;20.03;49.41;67193.66;6295819;22;48591;-86
2023/06/06 06:29:06;;;;;;;;;8.00;8.00;;;;;19.67;49.61;67195.41;6296316;22;45216;-86
2023/06/06 06:31:32;;;;;;;;;8.33;7.33;;;;;20.02;49.80;67136.75;6272713;22;45260;-86
2023/06/06 06:33:57;;;;;;;;;6.67;6.67;;;;;20.15;49.60;67210.25;6271232;22;45348;-86
2023/06/06 06:36:22;;;;;;;;;8.00;8.00;;;;;19.95;49.76;67095.88;6272544;22;45315;-87
2023/06/06 06:38:48;;;;;;;;;6.67;6.33;;;;;20.24;49.85;67140.19;6272579;22;45339;-87
2023/06/06 06:41:13;;;;;;;;;9.00;8.00;;;;;19.87;49.46;67059.78;6295999;22;45614;-86
2023/06/06 06:43:38;;;;;;;;;10.33;8.67;;;;;19.93;49.53;67072.66;6270720;22;45336;-87
2023/06/06 06:46:03;;;;;;;;;7.00;7.00;;;;;20.09;49.46;67018.16;6269394;22;46789;-88
2023/06/06 06:48:29;;;;;;;;;9.33;7.00;;;;;20.26;49.42;66967.47;6272344;22;45399;-87
2023/06/06 06:50:55;;;;;;;;;5.00;5.00;;;;;20.54;49.66;67039.53;6270526;22;45422;-87
2023/06/06 06:53:23;;;;;;;;;9.00;7.00;;;;;20.30;49.99;66917.81;6269469;22;45450;-87
2023/06/06 06:55:51;;;;;;;;;9.67;8.67;;;;;20.37;49.72;66907.09;6272613;22;46493;-87
2023/06/06 06:58:25;;;;;;;;;7.67;7.33;;;;;20.75;49.34;66907.47;6269321;22;45369;-86
2023/06/06 07:00:50;;;;;;;;;7.00;7.00;;;;;20.49;49.89;66848.47;6272797;22;45359;-86
2023/06/06 07:03:16;;;;;;;;;10.00;8.00;;;;;20.47;49.24;66776.34;6273518;22;45639;-87
2023/06/06 07:05:42;;;;;;;;;6.67;6.33;;;;;20.44;49.37;66856.72;6271954;22;46422;-87
2023/06/06 07:08:08;;;;;;;;;6.33;6.33;;;;;21.02;49.26;66849.34;6270942;22;45664;-87
2023/06/06 07:10:34;;;;;;;;;9.00;8.00;;;;;20.76;49.41;66717.88;6271664;22;45695;-87
2023/06/06 07:12:59;;;;;;;;;16.00;14.33;;;;;21.23;48.95;66824.03;6272474;22;45366;-87
2023/06/06 07:15:25;;;;;;;;;9.00;9.00;;;;;20.60;49.26;66689.31;6271926;22;45794;-87
2023/06/06 07:17:50;;;;;;;;;11.33;9.33;;;;;21.32;49.28;66720.94;6271779;22;45343;-87
2023/06/06 07:20:23;;;;;;;;;8.00;8.00;;;;;21.39;49.08;66737.06;6269440;22;45690;-87
2023/06/06 07:22:52;;;;;;;;;10.33;10.33;;;;;21.45;49.17;66682.13;6270248;22;45574;-87
2023/06/06 07:25:18;;;;;;;;;11.33;10.67;;;;;20.86;49.08;66517.19;6271124;22;45591;-87
2023/06/06 07:27:43;;;;;;;;;7.67;6.67;;;;;21.16;48.83;66590.22;6271680;22;45397;-87
2023/06/06 07:30:12;;;;;;;;;9.67;8.67;;;;;21.54;49.47;66619.88;6297249;22;45334;-88
2023/06/06 07:32:42;;;;;;;;;7.00;7.00;;;;;21.59;48.60;66622.38;6274462;22;45302;-87
2023/06/06 07:35:10;;;;;;;;;10.67;9.00;;;;;21.62;48.81;66583.34;6270721;22;46469;-87
2023/06/06 07:37:36;;;;;;;;;9.00;9.00;;;;;21.03;48.80;66489.88;6273631;22;45787;-87
2023/06/06 07:40:03;;;;;;;;;6.00;6.00;;;;;21.43;48.60;66567.47;6273777;22;45386;-87
2023/06/06 07:42:28;;;;;;;;;5.33;5.33;;;;;21.69;49.08;66555.84;6271083;22;45458;-86
2023/06/06 07:44:55;;;;;;;;;6.67;6.67;;;;;21.32;49.10;66532.75;6273236;22;46021;-87
2023/06/06 07:47:22;;;;;;;;;5.33;5.33;;;;;21.39;48.87;66503.72;6273291;22;45339;-86
2023/06/06 07:49:47;;;;;;;;;9.67;8.00;;;;;21.87;48.79;66492.50;6271011;22;45437;-87
2023/06/06 07:52:13;;;;;;;;;6.00;6.00;;;;;21.48;48.77;66475.84;6297884;22;45580;-87
2023/06/06 07:54:40;;;;;;;;;7.33;6.00;;;;;21.86;49.07;66475.22;6297456;22;48047;-87
2023/06/06 07:57:08;;;;;;;;;8.00;5.33;;;;;21.21;48.79;66316.41;6273569;22;45467;-87
2023/06/06 07:59:34;;;;;;;;;10.00;7.00;;;;;21.75;49.30;66317.34;6271604;22;45355;-87
2023/06/06 08:02:00;;;;;;;;;6.33;6.33;;;;;22.10;48.80;66249.72;6272180;22;45971;-87
2023/06/06 08:04:26;;;;;;;;;7.67;7.67;;;;;21.72;48.81;66217.66;6273255;22;45855;-87
2023/06/06 08:06:51;;;;;;;;;8.33;7.00;;;;;21.84;49.16;66164.09;6272498;22;45770;-87
2023/06/06 08:09:17;;;;;;;;;7.33;7.33;;;;;21.95;49.11;66178.22;6274962;22;45359;-88
2023/06/06 08:11:42;;;;;;;;;9.33;8.00;;;;;22.28;48.45;66110.31;6274702;22;45574;-87
2023/06/06 08:14:07;;;;;;;;;8.67;7.33;;;;;22.21;49.17;66113.69;6276029;22;45356;-85
2023/06/06 08:16:33;;;;;;;;;11.33;9.00;;;;;22.07;48.79;66046.56;6297456;22;45291;-84
2023/06/06 08:18:59;;;;;;;;;6.00;6.00;;;;;22.13;48.69;66078.19;6273127;22;45379;-84
2023/06/06 08:21:25;;;;;;;;;7.00;7.00;;;;;22.52;48.44;66077.84;6273041;22;45562;-84
2023/06/06 08:23:50;;;;;;;;;13.00;11.33;;;;;22.42;48.42;65997.03;6267735;22;47499;-87
2023/06/06 08:26:16;;;;;;;;;10.33;7.67;;;;;22.49;48.83;66052.91;6274765;22;45367;-88
2023/06/06 08:28:41;;;;;;;;;7.67;7.67;;;;;22.01;48.25;65991.88;6276066;22;45413;-88
2023/06/06 08:31:08;;;;;;;;;3.33;2.00;;;;;22.17;48.70;65928.19;6277488;22;45728;-87
2023/06/06 08:33:33;;;;;;;;;5.67;5.67;;;;;22.62;48.89;65902.84;6275038;22;45619;-87
2023/06/06 08:35:58;;;;;;;;;12.00;10.00;;;;;22.94;48.52;65772.13;6274039;22;45597;-86
2023/06/06 08:38:24;;;;;;;;;7.67;7.33;;;;;23.00;48.24;65702.34;6271765;22;45423;-88
2023/06/06 08:40:54;;;;;;;;;11.67;9.67;;;;;23.12;48.43;65616.78;6273261;22;45433;-87
2023/06/06 08:43:26;;;;;;;;;10.00;9.00;;;;;23.64;47.88;65455.38;6273151;22;45615;-86
2023/06/06 08:45:56;;;;;;;;;6.33;6.33;;;;;23.86;48.03;65160.69;6271251;22;45363;-86
2023/06/06 08:48:28;;;;;;;;;7.67;6.33;;;;;24.58;47.52;64904.94;6274428;22;45444;-86
2023/06/06 08:50:56;;;;;;;;;9.00;9.00;;;;;25.14;46.44;64671.22;6271749;22;45384;-86
2023/06/06 08:53:22;;;;;;;;;9.33;8.67;;;;;25.46;46.19;64593.28;6272816;22;45359;-86
2023/06/06 08:55:48;;;;;;;;;6.33;6.33;;;;;26.01;45.55;64471.44;6270380;22;45713;-87
2023/06/06 08:58:14;;;;;;;;;10.00;8.00;;;;;26.84;44.58;64758.69;6273303;22;45434;-87
2023/06/06 09:00:40;;;;;;;;;8.00;7.33;;;;;27.42;43.98;64694.09;6273472;22;45417;-88
2023/06/06 09:03:12;;;;;;;;;11.33;7.33;;;;;27.90;43.19;64781.69;6272430;22;45509;-87
2023/06/06 09:05:38;;;;;;;;;5.33;5.33;;;;;28.66;42.72;65304.53;6273242;22;45693;-85
2023/06/06 09:08:05;;;;;;;;;11.67;11.00;;;;;28.89;41.51;65879.22;6270762;22;45317;-85
2023/06/06 09:10:30;;;;;;;;;8.67;6.33;;;;;29.52;41.06;66060.41;6273403;22;45583;-84
2023/06/06 09:12:55;;;;;;;;;10.00;9.00;;;;;29.80;41.09;66195.09;6272774;22;46239;-85
2023/06/06 09:15:21;;;;;;;;;8.33;6.33;;;;;30.28;40.71;66401.13;6271084;22;48349;-85
2023/06/06 09:17:52;;;;;;;;;7.00;7.00;;;;;30.44;40.55;66356.03;6273208;22;45283;-85
2023/06/06 09:20:21;;;;;;;;;9.00;7.00;;;;;-145.03;100.00;62373.16;6286512;22;45316;-85
2023/06/06 09:22:48;;;;;;;;;8.33;7.33;;;;;-145.03;100.00;62373.16;6289565;22;31168;-86
2023/06/06 09:25:25;;;;;;;;;9.00;8.00;;;;;-145.03;100.00;62373.16;6289928;22;29832;-85
2023/06/06 09:28:02;;;;;;;;;6.75;6.75;;;;;-145.03;100.00;62373.16;6291486;22;28448;-85
2023/06/06 09:30:30;;;;;;;;;7.00;7.00;;;;;-145.03;100.00;62373.16;6292400;22;28619;-86
2023/06/06 09:33:01;;;;;;;;;6.33;6.33;;;;;-145.03;100.00;62373.16;6289383;22;28754;-86
2023/06/06 09:35:35;;;;;;;;;9.00;7.25;;;;;-145.03;100.00;62373.16;6291529;22;28323;-85
2023/06/06 09:38:08;;;;;;;;;9.50;8.50;;;;;-145.03;100.00;62373.16;6291737;22;28398;-85
2023/06/06 09:40:46;;;;;;;;;8.67;8.00;;;;;-145.03;100.00;62373.16;6292300;22;28746;-85
2023/06/06 09:43:12;;;;;;;;;7.33;7.33;;;;;-145.03;100.00;62373.16;6292030;22;28358;-86
2023/06/06 09:46:07;;;;;;;;;7.33;7.33;;;;;-145.03;100.00;62373.16;6291809;22;28535;-85
2023/06/06 09:48:32;;;;;;;;;6.33;6.33;;;;;-145.03;100.00;62373.16;6271452;22;28775;-86
2023/06/06 09:50:58;;;;;;;;;5.67;5.33;;;;;34.70;35.11;69779.88;6278624;22;45254;-85
2023/06/06 09:53:25;;;;;;;;;10.00;7.33;;;;;35.06;34.36;70055.75;6273067;22;45311;-86
2023/06/06 09:55:52;;;;;;;;;7.00;7.00;;;;;35.40;33.39;70505.09;6271025;22;45411;-86
2023/06/06 09:58:20;;;;;;;;;7.33;7.33;;;;;35.50;33.59;70594.13;6273150;22;45339;-86
2023/06/06 10:00:47;;;;;;;;;7.33;7.33;;;;;35.92;33.26;70689.59;6272891;22;45458;-86
2023/06/06 10:03:18;;;;;;;;;6.00;6.00;;;;;35.86;33.03;70853.09;6270753;22;46959;-86
2023/06/06 10:05:46;;;;;;;;;7.00;7.00;;;;;-145.03;100.00;62373.16;6272739;22;45419;-86
2023/06/06 10:08:13;;;;;;;;;6.50;5.00;;;;;-145.03;100.00;62373.16;6291359;22;28426;-84
2023/06/06 10:10:41;;;;;;;;;7.67;7.33;;;;;-145.03;100.00;62373.16;6291833;22;28418;-85
2023/06/06 10:13:09;;;;;;;;;9.67;6.33;;;;;-145.03;100.00;62373.16;6291690;22;28564;-86
2023/06/06 10:15:36;;;;;;;;;7.67;7.67;;;;;-145.03;100.00;62373.16;6288279;22;28766;-86
2023/06/06 10:18:02;;;;;;;;;7.50;7.50;;;;;-145.03;100.00;62373.16;6291632;22;28402;-85
2023/06/06 10:20:28;;;;;;;;;5.67;5.67;;;;;-145.03;100.00;62373.16;6290757;22;28339;-86
2023/06/06 10:22:53;;;;;;;;;8.00;6.67;;;;;-145.03;100.00;62373.16;6291037;22;28394;-86
2023/06/06 10:25:19;;;;;;;;;8.00;7.33;;;;;-145.03;100.00;62373.16;6290920;22;28780;-86
2023/06/06 10:28:42;;;;;;;;;6.67;6.00;;;;;-145.03;100.00;62373.16;6290686;22;28426;-86
2023/06/06 10:31:21;;;;;;;;;5.00;5.00;;;;;-145.03;100.00;62373.16;6257082;22;28392;-86
2023/06/06 10:33:55;;;;;;;;;7.00;6.67;;;;;-145.03;100.00;62373.16;6231469;22;28423;-86
2023/06/06 10:36:20;;;;;;;;;7.75;6.75;;;;;-145.03;100.00;62373.16;6256317;22;28554;-86
2023/06/06 10:39:20;;;;;;;;;4.00;4.00;;;;;-145.03;100.00;62373.16;6256894;22;28939;-86
2023/06/06 10:41:53;;;;;;;;;7.33;6.33;;;;;-145.03;100.00;62373.16;6258513;22;28865;-86
2023/06/06 10:44:21;;;;;;;;;6.67;5.67;;;;;-145.03;100.00;62373.16;6230956;22;29948;-86
2023/06/06 10:46:50;;;;;;;;;7.67;6.33;;;;;-145.03;100.00;62373.16;6257644;22;28420;-83
2023/06/06 10:49:15;;;;;;;;;6.25;6.25;;;;;-145.03;100.00;62373.16;6256419;22;28847;-84
2023/06/06 10:51:40;;;;;;;;;7.00;4.33;;;;;-145.03;100.00;62373.16;6205361;22;28491;-85
2023/06/06 10:54:20;;;;;;;;;4.67;4.67;;;;;-145.03;100.00;62373.16;6256782;22;29414;-85
2023/06/06 10:56:52;;;;;;;;;6.00;6.00;;;;;-145.03;100.00;62373.16;6256703;22;28393;-86
2023/06/06 10:59:31;;;;;;;;;3.33;3.33;;;;;-145.03;100.00;62373.16;6256866;22;28445;-85
2023/06/06 11:01:57;;;;;;;;;6.00;6.00;;;;;-145.03;100.00;62373.16;6276389;22;28619;-85
2023/06/06 11:04:29;;;;;;;;;6.33;5.33;;;;;-145.03;100.00;62373.16;6291722;22;29507;-85
2023/06/06 11:07:00;;;;;;;;;7.00;7.00;;;;;-145.03;100.00;62373.16;6291958;22;28500;-86
2023/06/06 11:09:29;;;;;;;;;4.50;4.50;;;;;-145.03;100.00;62373.16;6291039;22;28335;-86
2023/06/06 11:12:14;;;;;;;;;6.33;6.33;;;;;-145.03;100.00;62373.16;6292196;22;28400;-86
2023/06/06 11:14:56;;;;;;;;;5.00;5.00;;;;;-145.03;100.00;62373.16;6270258;22;29702;-86
2023/06/06 11:17:27;;;;;;;;;4.25;4.25;;;;;-145.03;100.00;62373.16;6291812;22;28382;-85
2023/06/06 11:19:55;;;;;;;;;5.00;4.25;;;;;-145.03;100.00;62373.16;6291986;22;28528;-86
2023/06/06 11:22:23;;;;;;;;;4.33;3.33;;;;;-145.03;100.00;62373.16;6292242;22;28865;-86
2023/06/06 11:24:48;;;;;;;;;3.67;3.67;;;;;-145.03;100.00;62373.16;6292357;22;28399;-86
2023/06/06 11:27:16;;;;;;;;;3.33;3.33;;;;;-145.03;100.00;62373.16;6291453;22;28407;-86
2023/06/06 11:29:41;;;;;;;;;5.50;4.00;;;;;-145.03;100.00;62373.16;6292289;22;28429;-86
2023/06/06 11:32:11;;;;;;;;;7.00;6.00;;;;;-145.03;100.00;62373.16;6290305;22;28517;-86
2023/06/06 11:34:38;;;;;;;;;6.00;5.00;;;;;-145.03;100.00;62373.16;6264274;22;30259;-86
2023/06/06 11:37:05;;;;;;;;;3.50;3.50;;;;;-145.03;100.00;62373.16;6292079;22;28402;-86
2023/06/06 11:39:30;;;;;;;;;5.00;4.75;;;;;-145.03;100.00;62373.16;6315824;22;28554;-86
2023/06/06 11:41:56;;;;;;;;;8.00;6.00;;;;;-145.03;100.00;62373.16;6291677;22;28433;-86
2023/06/06 11:44:30;;;;;;;;;6.67;5.33;;;;;-145.03;100.00;62373.16;6292185;22;28650;-86
2023/06/06 11:46:55;;;;;;;;;3.25;3.25;;;;;-145.03;100.00;62373.16;6292136;22;28442;-86
2023/06/06 11:49:22;;;;;;;;;3.00;3.00;;;;;-145.03;100.00;62373.16;6291736;22;28605;-85
2023/06/06 11:51:59;;;;;;;;;4.33;4.33;;;;;-145.03;100.00;62373.16;6292204;22;28430;-86
2023/06/06 11:54:27;;;;;;;;;4.33;4.33;;;;;-145.03;100.00;62373.16;6292149;22;28418;-86
2023/06/06 11:56:56;;;;;;;;;6.00;4.00;;;;;-145.03;100.00;62373.16;6291383;22;28437;-86
2023/06/06 11:59:23;;;;;;;;;4.00;4.00;;;;;-145.03;100.00;62373.16;6292297;22;28470;-86
2023/06/06 12:01:56;;;;;;;;;3.67;3.67;;;;;-145.03;100.00;62373.16;6292281;22;28790;-86
2023/06/06 12:04:24;;;;;;;;;3.33;3.33;;;;;35.71;28.54;70508.06;6281500;22;45406;-86
2023/06/06 12:07:09;;;;;;;;;4.00;4.00;;;;;35.43;28.72;70461.91;6271112;22;46188;-85
2023/06/06 12:09:34;;;;;;;;;5.00;4.00;;;;;35.04;28.04;70467.97;6272330;22;45299;-86
2023/06/06 12:12:02;;;;;;;;;4.00;4.00;;;;;35.00;29.01;70479.66;6273188;22;45287;-85
2023/06/06 12:14:29;;;;;;;;;6.00;4.00;;;;;34.73;28.47;70407.28;6272989;22;45439;-85
2023/06/06 12:17:08;;;;;;;;;4.33;4.33;;;;;34.56;28.95;70458.31;6273243;22;45446;-86
2023/06/06 12:19:35;;;;;;;;;4.00;4.00;;;;;34.14;28.91;70348.72;6273108;22;45367;-86
2023/06/06 12:22:00;;;;;;;;;5.00;5.00;;;;;34.03;29.04;70385.53;6273107;22;45423;-85
2023/06/06 12:24:28;;;;;;;;;4.67;4.67;;;;;34.10;29.24;70457.09;6272491;22;45398;-86
2023/06/06 12:26:59;;;;;;;;;3.67;3.67;;;;;33.73;29.35;70402.91;6272592;22;45463;-85
2023/06/06 12:29:33;;;;;;;;;4.00;4.00;;;;;33.76;29.54;70414.75;6273442;22;45565;-85
2023/06/06 12:32:17;;;;;;;;;4.00;3.00;;;;;33.62;29.92;70415.03;6274015;22;45476;-85
2023/06/06 12:34:48;;;;;;;;;6.00;6.00;;;;;33.52;30.04;70444.13;6273191;22;45670;-85
2023/06/06 12:37:13;;;;;;;;;4.00;4.00;;;;;33.42;30.09;70380.03;6273033;22;45647;-85
2023/06/06 12:39:40;;;;;;;;;4.00;4.00;;;;;33.34;30.18;70381.41;6270798;22;45372;-86
2023/06/06 12:42:17;;;;;;;;;6.33;3.33;;;;;32.93;30.13;70369.63;6273839;22;45458;-85
2023/06/06 12:44:43;;;;;;;;;5.00;5.00;;;;;33.15;30.64;70372.91;6270503;22;48195;-86
2023/06/06 12:47:17;;;;;;;;;5.00;5.00;;;;;32.77;30.55;70339.47;6273168;22;45355;-85
2023/06/06 12:49:44;;;;;;;;;7.00;3.67;;;;;32.89;30.30;70370.31;6273086;22;45651;-85
2023/06/06 12:52:11;;;;;;;;;4.33;4.33;;;;;32.95;30.23;70418.03;6273122;22;45491;-84
2023/06/06 12:54:40;;;;;;;;;3.00;3.00;;;;;32.54;30.62;70290.56;6269437;22;47495;-86
2023/06/06 12:57:10;;;;;;;;;4.00;4.00;;;;;32.68;30.33;70336.91;6270688;22;45406;-85
2023/06/06 12:59:41;;;;;;;;;3.33;3.00;;;;;32.68;30.90;70370.38;6270527;22;45421;-86
2023/06/06 13:02:08;;;;;;;;;6.00;4.00;;;;;32.54;31.15;70339.88;6271449;22;45394;-85
2023/06/06 13:04:35;;;;;;;;;2.67;2.67;;;;;32.66;31.00;70365.22;6272782;22;45635;-86
2023/06/06 13:07:01;;;;;;;;;3.00;3.00;;;;;32.50;30.65;70305.56;6272623;22;45367;-85
2023/06/06 13:09:27;;;;;;;;;3.33;3.33;;;;;32.55;31.14;70291.78;6272659;22;45347;-86
2023/06/06 13:11:53;;;;;;;;;2.33;2.33;;;;;32.52;31.25;70431.22;6272794;22;45518;-85
2023/06/06 13:14:18;;;;;;;;;2.00;2.00;;;;;32.21;30.86;70356.22;6272632;22;45887;-86
2023/06/06 13:16:44;;;;;;;;;2.00;2.00;;;;;32.40;31.03;70301.75;6272989;22;45344;-86
2023/06/06 13:19:12;;;;;;;;;4.00;3.00;;;;;32.16;30.48;70317.97;6272709;22;45524;-86
2023/06/06 13:21:37;;;;;;;;;3.00;3.00;;;;;32.17;30.62;70384.88;6296686;22;45541;-86
2023/06/06 13:24:03;;;;;;;;;2.67;2.67;;;;;32.21;31.26;70306.34;6270362;22;45393;-86
2023/06/06 13:26:29;;;;;;;;;4.00;4.00;;;;;32.15;30.77;70311.31;6270356;22;45597;-86
2023/06/06 13:28:54;;;;;;;;;1.67;1.67;;;;;31.86;30.60;70375.59;6273154;22;45383;-86
2023/06/06 13:31:20;;;;;;;;;2.00;2.00;;;;;31.97;30.63;70333.50;6245433;22;45683;-86
2023/06/06 13:33:45;;;;;;;;;2.33;2.33;;;;;31.75;30.63;70327.44;6272607;22;45926;-86
2023/06/06 13:36:11;;;;;;;;;3.00;3.00;;;;;31.66;30.27;70272.25;6272895;22;45377;-86
2023/06/06 13:38:36;;;;;;;;;1.67;1.67;;;;;31.14;30.71;70178.88;6272870;22;45380;-86
2023/06/06 13:41:01;;;;;;;;;1.67;1.67;;;;;31.76;30.69;70330.75;6273212;22;45492;-86
2023/06/06 13:43:27;;;;;;;;;1.00;1.00;;;;;31.67;30.98;70224.22;6271054;22;46594;-86
2023/06/06 13:45:52;;;;;;;;;2.67;2.67;;;;;31.69;31.30;70320.22;6272920;22;45477;-86
2023/06/06 13:48:17;;;;;;;;;4.33;3.00;;;;;31.75;30.80;70269.38;6272977;22;45640;-86
2023/06/06 13:50:43;;;;;;;;;1.67;1.67;;;;;31.53;30.37;70210.78;6273305;22;45330;-86
2023/06/06 13:53:08;;;;;;;;;2.67;1.67;;;;;31.63;30.87;70250.13;6271637;22;46924;-86
2023/06/06 13:55:33;;;;;;;;;3.00;3.00;;;;;31.40;30.33;70212.22;6272208;22;45386;-86
2023/06/06 13:58:03;;;;;;;;;2.67;2.00;;;;;31.53;30.63;70221.72;6296751;22;45383;-86
2023/06/06 14:00:29;;;;;;;;;5.00;1.67;;;;;31.48;30.50;70240.94;6272768;22;45486;-86
2023/06/06 14:02:54;;;;;;;;;2.00;2.00;;;;;31.41;30.63;70243.47;6270303;22;47344;-86
2023/06/06 14:05:20;;;;;;;;;2.00;2.00;;;;;31.27;29.92;70128.25;6272425;22;45332;-86
2023/06/06 14:07:46;;;;;;;;;1.67;1.67;;;;;31.00;30.00;70173.63;6270414;22;45427;-86
2023/06/06 14:10:11;;;;;;;;;2.33;2.00;;;;;31.03;30.67;70190.28;6270934;22;45606;-86
2023/06/06 14:12:37;;;;;;;;;2.00;0.67;;;;;31.15;30.17;70239.59;6271878;22;46880;-86
2023/06/06 14:15:03;;;;;;;;;2.00;2.00;;;;;31.05;30.04;70165.97;6272721;22;45463;-85
2023/06/06 14:17:29;;;;;;;;;2.00;2.00;;;;;31.14;30.18;70285.47;6272262;22;45362;-85
2023/06/06 14:19:56;;;;;;;;;1.33;1.33;;;;;30.79;29.34;70129.94;6272734;22;45406;-85
2023/06/06 14:22:27;;;;;;;;;3.00;2.00;;;;;31.14;29.56;70135.16;6272289;22;46379;-85
2023/06/06 14:24:55;;;;;;;;;2.00;2.00;;;;;31.09;29.59;70167.41;6270065;22;45382;-84
2023/06/06 14:27:22;;;;;;;;;2.67;2.00;;;;;30.91;29.68;70119.13;6272075;22;45355;-85
2023/06/06 14:29:48;;;;;;;;;2.00;2.00;;;;;30.67;29.08;70134.66;6270276;22;45407;-85
2023/06/06 14:32:19;;;;;;;;;1.00;1.00;;;;;30.79;29.24;70091.69;6271034;22;46294;-85
2023/06/06 14:34:46;;;;;;;;;2.67;2.00;;;;;30.97;29.05;70142.09;6266088;22;45331;-85
2023/06/06 14:37:11;;;;;;;;;2.00;2.00;;;;;30.52;29.41;70021.13;6269551;22;45644;-84
2023/06/06 14:39:38;;;;;;;;;1.00;1.00;;;;;30.60;29.09;70118.06;6270388;22;45362;-84
2023/06/06 14:42:05;;;;;;;;;2.67;1.33;;;;;30.88;29.33;70116.16;6272471;22;45529;-84
2023/06/06 14:44:35;;;;;;;;;1.00;1.00;;;;;30.69;29.06;70124.00;6271600;22;45313;-84
2023/06/06 14:47:02;;;;;;;;;2.00;2.00;;;;;30.17;29.02;70079.25;6296152;22;45357;-85
2023/06/06 14:49:27;;;;;;;;;1.67;1.67;;;;;30.72;28.79;70132.47;6272348;22;45360;-85
2023/06/06 14:51:53;;;;;;;;;1.00;1.00;;;;;30.48;28.96;70052.44;6271274;22;45501;-85
2023/06/06 14:54:18;;;;;;;;;1.67;1.67;;;;;30.72;29.03;70102.44;6271994;22;45383;-84
2023/06/06 14:56:44;;;;;;;;;1.67;1.00;;;;;30.40;29.25;70228.47;6272478;22;45276;-84
2023/06/06 14:59:09;;;;;;;;;1.67;1.67;;;;;30.47;28.42;69974.81;6271910;22;45339;-84
2023/06/06 15:01:36;;;;;;;;;1.00;1.00;;;;;30.52;29.25;70059.34;6269093;22;45443;-84
2023/06/06 15:04:02;;;;;;;;;2.00;2.00;;;;;30.34;29.01;70077.22;6271661;22;45435;-84
2023/06/06 15:06:27;;;;;;;;;4.00;3.00;;;;;30.53;29.39;70109.69;6269511;22;45527;-84
2023/06/06 15:08:53;;;;;;;;;2.33;1.33;;;;;30.24;28.84;70065.22;6272398;22;45487;-84
2023/06/06 15:11:18;;;;;;;;;1.00;1.00;;;;;30.46;28.91;70025.47;6271770;22;45968;-84
2023/06/06 15:13:43;;;;;;;;;1.67;1.67;;;;;30.31;28.89;70032.69;6271548;22;45509;-85
2023/06/06 15:16:09;;;;;;;;;1.33;1.33;;;;;29.92;28.83;70019.31;6272363;22;45358;-85
2023/06/06 15:18:35;;;;;;;;;4.00;2.33;;;;;30.31;28.78;70053.91;6272673;22;45491;-84
2023/06/06 15:21:01;;;;;;;;;1.00;1.00;;;;;29.96;28.70;70144.72;6269341;22;48318;-84
2023/06/06 15:23:26;;;;;;;;;1.00;1.00;;;;;30.27;28.69;70068.81;6271916;22;45328;-83
2023/06/06 15:25:52;;;;;;;;;1.33;1.33;;;;;29.95;28.62;70023.50;6272249;22;45272;-83
2023/06/06 15:28:17;;;;;;;;;1.00;1.00;;;;;30.19;28.75;70053.78;6269780;22;45371;-84
2023/06/06 15:30:44;;;;;;;;;1.33;1.33;;;;;30.14;28.73;70018.38;6272023;22;45783;-84
2023/06/06 15:33:09;;;;;;;;;2.00;2.00;;;;;29.71;28.41;69994.78;6271523;22;45272;-84
2023/06/06 15:35:34;;;;;;;;;3.00;3.00;;;;;30.04;28.64;70064.28;6271543;22;45570;-83
2023/06/06 15:38:00;;;;;;;;;3.67;1.33;;;;;29.44;28.93;69941.84;6271792;22;45388;-83
2023/06/06 15:40:26;;;;;;;;;2.00;2.00;;;;;29.65;28.81;69983.31;6271115;22;45378;-83
2023/06/06 15:42:51;;;;;;;;;2.00;2.00;;;;;29.70;28.80;70024.16;6271660;22;45631;-84
2023/06/06 15:45:17;;;;;;;;;1.00;1.00;;;;;29.60;28.97;70007.31;6272767;22;45386;-83
2023/06/06 15:47:42;;;;;;;;;1.33;1.33;;;;;29.85;29.18;70014.25;6273319;22;45792;-83
2023/06/06 15:50:08;;;;;;;;;1.00;1.00;;;;;29.71;28.83;70041.13;6270975;22;46970;-83
2023/06/06 15:52:34;;;;;;;;;1.00;1.00;;;;;29.61;28.48;69915.22;6272921;22;45832;-84
2023/06/06 15:55:00;;;;;;;;;3.00;2.33;;;;;29.78;28.43;70052.84;6246039;22;45447;-84
2023/06/06 15:57:26;;;;;;;;;1.00;1.00;;;;;29.54;28.54;69956.53;6273540;22;45348;-84
2023/06/06 15:59:51;;;;;;;;;1.67;1.67;;;;;29.69;28.42;69976.00;6273132;22;45363;-83
2023/06/06 16:02:17;;;;;;;;;1.00;1.00;;;;;29.33;28.66;69985.91;6273192;22;45274;-84
2023/06/06 16:04:42;;;;;;;;;3.00;2.00;;;;;29.25;28.59;70083.19;6273497;22;45305;-83
2023/06/06 16:07:08;;;;;;;;;1.67;1.67;;;;;29.59;28.78;69981.00;6270794;22;45598;-84
2023/06/06 16:09:33;;;;;;;;;1.00;1.00;;;;;29.50;28.69;70017.16;6270727;22;46985;-83
2023/06/06 16:11:59;;;;;;;;;1.67;1.67;;;;;29.17;28.83;69912.84;6273605;22;45622;-84
2023/06/06 16:14:25;;;;;;;;;1.00;1.00;;;;;29.49;29.03;69988.69;6271103;22;45400;-84
2023/06/06 16:16:51;;;;;;;;;2.00;2.00;;;;;29.48;28.97;70000.53;6273614;22;45442;-84
2023/06/06 16:19:17;;;;;;;;;1.33;1.33;;;;;29.00;28.99;69933.97;6272620;22;46013;-85
2023/06/06 16:21:42;;;;;;;;;2.00;2.00;;;;;29.14;28.84;70023.69;6273383;22;45472;-84
2023/06/06 16:24:08;;;;;;;;;1.00;1.00;;;;;29.32;28.99;69998.94;6273065;22;45691;-84
2023/06/06 16:26:33;;;;;;;;;3.00;2.00;;;;;28.72;29.03;69879.88;6273594;22;45778;-84
2023/06/06 16:28:59;;;;;;;;;2.00;2.00;;;;;28.93;29.14;69890.19;6272174;22;46522;-85